< < Back
Terminal Aerodrome Forecast


Current Version              Previous Versions:   1  2  3  4  5  6  7  8  9  

Terminal Aerodrome Forecast

817
FTUS44 KOHX 101413 AAC
TAFCSV
TAF AMD
KCSV 101413Z 1014/1112 29009KT P6SM BKN015 BKN025
      TEMPO 1014/1016 2SM -SN OVC025
     FM101600 29008G17KT P6SM -SN OVC035
     FM110000 28003KT P6SM OVC060
     FM110500 25003KT P6SM OVC020=



Latest METAR

181
SAUS70 KWBC 102200 RRG
MTRCSV
METAR KCSV 102153Z AUTO 26008G15KT 10SM BKN100 M06/M13 A3005 RMK AO2
SLP198 T10561133


USA.gov is the U.S. government's official web portal to all federal, state and local government web resources and services.